D/T METAR WX W/DIR W/SPE G/SPE TEMP DEWP
8/12/19 09:20 EGHH 080920Z 26016KT 9999 FEW035 10/05 Q1004 W (260°) 18.4mph 10°C 5°C
8/12/19 08:50 EGHH 080850Z 26016G28KT 9999 FEW035 09/05 Q1004 W (260°) 18.4mph 32.2mph 9°C 5°C
8/12/19 08:20 EGHH 080820Z 26016KT 9999 FEW035 09/05 Q1003 W (260°) 18.4mph 9°C 5°C
8/12/19 07:50 EGHH 080750Z 26014KT 9999 FEW030 09/05 Q1003 W (260°) 16.1mph 9°C 5°C
8/12/19 07:20 EGHH 080720Z 26014KT 9999 FEW035 10/06 Q1003 W (260°) 16.1mph 10°C 6°C
7/12/19 21:20 EGHH 072120Z 22012KT 9999 OVC012 11/09 Q1011 SW (220°) 13.8mph 11°C 9°C
7/12/19 20:50 EGHH 072050Z 22013KT 9999 OVC012 11/09 Q1011 SW (220°) 15.0mph 11°C 9°C
7/12/19 20:20 EGHH 072020Z 23011KT 9999 OVC012 11/09 Q1011 SW (230°) 12.7mph 11°C 9°C
7/12/19 19:50 EGHH 071950Z 22007KT 9999 OVC013 11/09 Q1011 SW (220°) 8.1mph 11°C 9°C
7/12/19 19:20 EGHH 071920Z 23011KT 9999 OVC018 11/08 Q1012 SW (230°) 12.7mph 11°C 8°C
7/12/19 18:50 EGHH 071850Z 22008KT 9999 BKN018 11/08 Q1012 SW (220°) 9.2mph 11°C 8°C
7/12/19 18:20 EGHH 071820Z 23009KT 9999 BKN018 BKN023 11/08 Q1013 SW (230°) 10.4mph 11°C 8°C
7/12/19 17:50 EGHH 071750Z 23009KT 9999 SCT018 BKN021 11/09 Q1013 SW (230°) 10.4mph 11°C 9°C
7/12/19 17:20 EGHH 071720Z 22007KT 9999 BKN020 11/08 Q1013 SW (220°) 8.1mph 11°C 8°C
7/12/19 16:50 EGHH 071650Z 23009KT 9999 BKN021 11/08 Q1013 SW (230°) 10.4mph 11°C 8°C
7/12/19 15:20 EGHH 071520Z 24010KT 9999 BKN020 11/08 Q1014 WSW (240°) 11.5mph 11°C 8°C
7/12/19 14:50 EGHH 071450Z 24010KT 9999 BKN020 11/07 Q1014 WSW (240°) 11.5mph 11°C 7°C
7/12/19 13:50 EGHH 071350Z 24009KT 9999 BKN021 11/07 Q1014 WSW (240°) 10.4mph 11°C 7°C
7/12/19 12:50 EGHH 071250Z 27011KT 9999 SCT023 11/07 Q1015 W (270°) 12.7mph 11°C 7°C
7/12/19 12:20 EGHH 071220Z 27011KT 9999 FEW015 SCT032 12/08 Q1015 W (270°) 12.7mph 12°C 8°C
7/12/19 11:50 EGHH 071150Z 24009KT 9999 FEW012 SCT032 11/08 Q1015 WSW (240°) 10.4mph 11°C 8°C
7/12/19 11:20 EGHH 071120Z 24010KT 9999 FEW030 12/07 Q1015 WSW (240°) 11.5mph 12°C 7°C
7/12/19 10:50 EGHH 071050Z 24009KT 9999 FEW030 11/07 Q1015 WSW (240°) 10.4mph 11°C 7°C
7/12/19 10:20 EGHH 071020Z 24005KT 9999 FEW030 10/07 Q1015 WSW (240°) 5.8mph 10°C 7°C
7/12/19 09:20 EGHH 070920Z 27006KT 9999 FEW025 SCT034 09/07 Q1016 W (270°) 6.9mph 9°C 7°C
7/12/19 08:50 EGHH 070850Z 25007KT 9999 BKN036 09/07 Q1015 WSW (250°) 8.1mph 9°C 7°C
7/12/19 08:20 EGHH 070820Z 26004KT 270V330 9999 BKN037 07/06 Q1015 W (260°) 4.6mph 7°C 6°C
7/12/19 07:50 EGHH 070750Z 27005KT 270V330 9999 BKN038 07/06 Q1015 W (270°) 5.8mph 7°C 6°C
7/12/19 07:20 EGHH 070720Z 26005KT 9000 BKN038 07/06 Q1015 W (260°) 5.8mph 7°C 6°C
7/12/19 06:50 EGHH 070650Z 25005KT 9000 SCT038 07/05 Q1014 WSW (250°) 5.8mph 7°C 5°C
7/12/19 06:20 EGHH 070620Z 25006KT 9000 SCT035 07/05 Q1014 WSW (250°) 6.9mph 7°C 5°C
6/12/19 22:50 EGHH 062250Z 26007KT 9999 BKN035 09/07 Q1011 W (260°) 8.1mph 9°C 7°C
6/12/19 22:20 EGHH 062220Z 25006KT 9999 BKN038 09/07 Q1011 WSW (250°) 6.9mph 9°C 7°C
6/12/19 21:50 EGHH 062150Z 25007KT 9999 BKN042 08/06 Q1010 WSW (250°) 8.1mph 8°C 6°C
6/12/19 21:20 EGHH 062120Z 28005KT 9999 BKN037 09/07 Q1010 W (280°) 5.8mph 9°C 7°C
6/12/19 20:50 EGHH 062050Z 27005KT 9999 SCT033 09/07 Q1009 W (270°) 5.8mph 9°C 7°C
6/12/19 20:20 EGHH 062020Z 29006KT 9999 FEW032 08/06 Q1009 WNW (290°) 6.9mph 8°C 6°C
6/12/19 19:50 EGHH 061950Z 27008KT 9999 OVC037 10/06 Q1009 W (270°) 9.2mph 10°C 6°C
6/12/19 18:50 EGHH 061850Z 28007KT 9999 SCT036 10/07 Q1008 W (280°) 8.1mph 10°C 7°C
6/12/19 18:20 EGHH 061820Z 28014KT 9999 FEW038 10/07 Q1007 W (280°) 16.1mph 10°C 7°C
6/12/19 17:20 EGHH 061720Z 27009KT 9999 FEW025 SCT036 10/08 Q1006 W (270°) 10.4mph 10°C 8°C
6/12/19 16:50 EGHH 061650Z 27012KT 9999 FEW007 SCT018 10/08 Q1005 W (270°) 13.8mph 10°C 8°C
6/12/19 16:20 EGHH 061620Z 26014KT 9999 FEW005 SCT017 11/09 Q1005 W (260°) 16.1mph 11°C 9°C
6/12/19 15:50 EGHH 061550Z 26016G27KT 9999 -RA FEW002 SCT017 BKN032 11/09 Q1005 -RA W (260°) 18.4mph 31.1mph 11°C 9°C
6/12/19 15:20 EGHH 061520Z 26018KT 9000 -RA FEW005 SCT016 BKN032 12/09 Q1004 -RA W (260°) 20.7mph 12°C 9°C
6/12/19 14:50 EGHH 061450Z 26015KT 9999 FEW008 SCT016 12/10 Q1004 W (260°) 17.3mph 12°C 10°C
6/12/19 14:20 EGHH 061420Z 26019KT 9999 FEW008 SCT010 13/11 Q1004 W (260°) 21.9mph 13°C 11°C
6/12/19 13:50 EGHH 061350Z 25017KT 9999 FEW008 SCT010 BKN017 13/11 Q1004 WSW (250°) 19.6mph 13°C 11°C